シドニー の空港の天気 - METARとTAF

シドニー国際空港 ( YSSY / SYD ) - オーストラリア ニューサウスウェールズ州、Mascot
飛行場実況気象(Metar)
観測時間05/27 09:30 AEST (05/26 23:30 UTC)
風向・風速西 3m/s
視程10km以上
天気現象周辺でしゅう雨
少しの雲 雲底高度 460m
全天の4割程度の雲 雲底高度 610m
気温16℃
湿度72%
気圧1022hPa
METARYSSY 262330Z 26005KT 9999 VCSH FEW015 SCT020 16/11 Q1022
過去の天気等 Google飛行場航空写真 Wunderground天気予報

過去48時間のMETAR

飛行場予報(TAF)
発表時間: 5/27 09:09 AEST (5/26 23:09 UTC)
予報対象時間: 27日10時 AEST ~ 28日16時 AEST
風向・風速西 4m/s
視程10km以上
天気現象弱いしゅう雨
少しの雲 雲底高度 610m
全天の4割程度の雲 雲底高度 1520m
27日12時 AEST から
風向・風速南 5m/s
視程10km以上
全天の4割程度の雲 雲底高度 1070m
27日20時 AEST から
風向・風速西北西 4m/s
視程10km以上
なし
28日14時 AEST から
風向・風速南南東 5m/s
視程10km以上
なし
28日4時 AEST から 確率 30% で
視程4000m
天気現象もや
全天の4割程度の雲 雲底高度 30m
TAF YSSY 262309Z 2700/2806 27008KT 9999 -SHRA FEW020 SCT050
FM270200 17010KT 9999 SCT035
FM271000 29007KT CAVOK
FM280400 16010KT CAVOK
PROB30 2718/2722 4000 BR SCT001